sensor_id;sensor_type;location;lat;lon;timestamp;pressure;altitude;pressure_sealevel;temperature;humidity
53754;BME280;39667;52.274;20.964;2022-07-04T00:01:26;100549.17;;;21.36;66.28
53754;BME280;39667;52.274;20.964;2022-07-04T00:03:53;100550.65;;;21.32;66.47
53754;BME280;39667;52.274;20.964;2022-07-04T00:06:19;100550.21;;;21.26;66.60
53754;BME280;39667;52.274;20.964;2022-07-04T00:08:45;100551.08;;;21.24;66.81
53754;BME280;39667;52.274;20.964;2022-07-04T00:11:11;100552.52;;;21.23;66.74
53754;BME280;39667;52.274;20.964;2022-07-04T00:13:38;100552.12;;;21.21;66.78
53754;BME280;39667;52.274;20.964;2022-07-04T00:16:04;100547.70;;;21.16;66.74
53754;BME280;39667;52.274;20.964;2022-07-04T00:18:30;100548.90;;;21.13;66.92
53754;BME280;39667;52.274;20.964;2022-07-04T00:20:56;100545.71;;;21.13;67.06
53754;BME280;39667;52.274;20.964;2022-07-04T00:23:23;100542.70;;;21.12;67.01
53754;BME280;39667;52.274;20.964;2022-07-04T00:25:49;100538.94;;;21.12;66.98
53754;BME280;39667;52.274;20.964;2022-07-04T00:28:15;100536.77;;;21.13;67.04
53754;BME280;39667;52.274;20.964;2022-07-04T00:30:42;100533.74;;;21.12;67.22
53754;BME280;39667;52.274;20.964;2022-07-04T00:33:12;100532.73;;;21.11;67.16
53754;BME280;39667;52.274;20.964;2022-07-04T00:35:39;100523.10;;;21.06;67.16
53754;BME280;39667;52.274;20.964;2022-07-04T00:38:06;100522.95;;;21.06;67.42
53754;BME280;39667;52.274;20.964;2022-07-04T00:40:32;100521.89;;;21.02;67.41
53754;BME280;39667;52.274;20.964;2022-07-04T00:43:02;100519.44;;;20.97;67.48
53754;BME280;39667;52.274;20.964;2022-07-04T00:45:28;100518.57;;;20.97;67.72
53754;BME280;39667;52.274;20.964;2022-07-04T00:47:55;100518.73;;;20.97;67.73
53754;BME280;39667;52.274;20.964;2022-07-04T00:50:21;100513.51;;;20.95;67.95
53754;BME280;39667;52.274;20.964;2022-07-04T00:52:48;100510.20;;;20.93;67.87
53754;BME280;39667;52.274;20.964;2022-07-04T00:55:15;100509.27;;;20.89;67.88
53754;BME280;39667;52.274;20.964;2022-07-04T01:01:00;100503.41;;;20.84;68.20
53754;BME280;39667;52.274;20.964;2022-07-04T01:03:26;100497.55;;;20.80;68.15
53754;BME280;39667;52.274;20.964;2022-07-04T01:05:53;100501.66;;;20.80;68.25
53754;BME280;39667;52.274;20.964;2022-07-04T01:08:19;100496.17;;;20.75;68.29
53754;BME280;39667;52.274;20.964;2022-07-04T01:11:06;100498.26;;;20.76;68.46
53754;BME280;39667;52.274;20.964;2022-07-04T01:13:33;100497.80;;;20.75;68.51
53754;BME280;39667;52.274;20.964;2022-07-04T01:16:00;100497.70;;;20.73;68.62
53754;BME280;39667;52.274;20.964;2022-07-04T01:18:27;100496.52;;;20.68;68.55
53754;BME280;39667;52.274;20.964;2022-07-04T01:20:53;100503.39;;;20.67;68.76
53754;BME280;39667;52.274;20.964;2022-07-04T01:23:20;100504.45;;;20.64;68.79
53754;BME280;39667;52.274;20.964;2022-07-04T01:25:47;100496.96;;;20.59;69.01
53754;BME280;39667;52.274;20.964;2022-07-04T01:28:14;100497.55;;;20.58;69.03
53754;BME280;39667;52.274;20.964;2022-07-04T01:30:40;100498.38;;;20.56;69.26
53754;BME280;39667;52.274;20.964;2022-07-04T01:33:10;100498.98;;;20.54;69.31
53754;BME280;39667;52.274;20.964;2022-07-04T01:35:37;100501.25;;;20.52;69.31
53754;BME280;39667;52.274;20.964;2022-07-04T01:38:03;100504.34;;;20.51;69.31
53754;BME280;39667;52.274;20.964;2022-07-04T01:40:30;100505.86;;;20.49;69.49
53754;BME280;39667;52.274;20.964;2022-07-04T01:42:56;100506.35;;;20.46;69.46
53754;BME280;39667;52.274;20.964;2022-07-04T01:45:24;100510.38;;;20.45;69.56
53754;BME280;39667;52.274;20.964;2022-07-04T01:47:50;100506.86;;;20.43;69.59
53754;BME280;39667;52.274;20.964;2022-07-04T01:50:16;100507.05;;;20.43;69.69
53754;BME280;39667;52.274;20.964;2022-07-04T01:52:44;100510.05;;;20.44;69.70
53754;BME280;39667;52.274;20.964;2022-07-04T01:55:11;100508.10;;;20.44;69.74
53754;BME280;39667;52.274;20.964;2022-07-04T01:57:38;100506.20;;;20.42;69.75
53754;BME280;39667;52.274;20.964;2022-07-04T02:00:06;100508.56;;;20.41;69.68
53754;BME280;39667;52.274;20.964;2022-07-04T02:02:51;100508.58;;;20.37;69.87
53754;BME280;39667;52.274;20.964;2022-07-04T02:05:18;100507.53;;;20.37;69.88
53754;BME280;39667;52.274;20.964;2022-07-04T02:07:44;100505.29;;;20.35;69.91
53754;BME280;39667;52.274;20.964;2022-07-04T02:10:10;100509.92;;;20.35;70.00
53754;BME280;39667;52.274;20.964;2022-07-04T02:12:37;100510.52;;;20.35;70.12
53754;BME280;39667;52.274;20.964;2022-07-04T02:15:22;100511.40;;;20.31;70.17
53754;BME280;39667;52.274;20.964;2022-07-04T02:17:48;100512.17;;;20.29;70.30
53754;BME280;39667;52.274;20.964;2022-07-04T02:20:14;100509.92;;;20.28;70.42
53754;BME280;39667;52.274;20.964;2022-07-04T02:22:40;100509.98;;;20.26;70.37
53754;BME280;39667;52.274;20.964;2022-07-04T02:25:07;100502.86;;;20.22;70.51
53754;BME280;39667;52.274;20.964;2022-07-04T02:27:33;100504.95;;;20.19;70.72
53754;BME280;39667;52.274;20.964;2022-07-04T02:29:59;100508.97;;;20.22;70.84
53754;BME280;39667;52.274;20.964;2022-07-04T02:32:27;100513.42;;;20.18;70.90
53754;BME280;39667;52.274;20.964;2022-07-04T02:34:54;100513.30;;;20.17;71.06
53754;BME280;39667;52.274;20.964;2022-07-04T02:37:20;100509.60;;;20.12;70.99
53754;BME280;39667;52.274;20.964;2022-07-04T02:39:46;100506.65;;;20.06;71.28
53754;BME280;39667;52.274;20.964;2022-07-04T02:42:13;100498.73;;;20.03;71.38
53754;BME280;39667;52.274;20.964;2022-07-04T02:44:39;100501.77;;;19.98;71.60
53754;BME280;39667;52.274;20.964;2022-07-04T02:47:07;100500.70;;;19.99;71.83
53754;BME280;39667;52.274;20.964;2022-07-04T02:49:33;100500.33;;;19.99;71.81
53754;BME280;39667;52.274;20.964;2022-07-04T02:52:00;100496.30;;;20.01;71.92
53754;BME280;39667;52.274;20.964;2022-07-04T02:54:26;100500.02;;;20.02;71.82
53754;BME280;39667;52.274;20.964;2022-07-04T02:56:52;100501.58;;;20.03;71.88
53754;BME280;39667;52.274;20.964;2022-07-04T02:59:18;100507.37;;;20.06;72.01
53754;BME280;39667;52.274;20.964;2022-07-04T03:01:44;100505.67;;;20.08;71.85
53754;BME280;39667;52.274;20.964;2022-07-04T03:04:10;100505.45;;;20.09;71.87
53754;BME280;39667;52.274;20.964;2022-07-04T03:06:37;100506.20;;;20.08;71.85
53754;BME280;39667;52.274;20.964;2022-07-04T03:09:06;100512.02;;;20.10;71.80
53754;BME280;39667;52.274;20.964;2022-07-04T03:11:32;100509.09;;;20.11;71.87
53754;BME280;39667;52.274;20.964;2022-07-04T03:13:59;100509.74;;;20.13;71.78
53754;BME280;39667;52.274;20.964;2022-07-04T03:16:25;100512.45;;;20.15;71.73
53754;BME280;39667;52.274;20.964;2022-07-04T03:18:52;100511.86;;;20.13;71.61
53754;BME280;39667;52.274;20.964;2022-07-04T03:21:18;100515.01;;;20.11;71.61
53754;BME280;39667;52.274;20.964;2022-07-04T03:23:44;100519.82;;;20.08;71.59
53754;BME280;39667;52.274;20.964;2022-07-04T03:26:27;100523.16;;;20.09;71.95
53754;BME280;39667;52.274;20.964;2022-07-04T03:28:56;100521.48;;;20.13;71.82
53754;BME280;39667;52.274;20.964;2022-07-04T03:31:23;100523.02;;;20.11;71.77
53754;BME280;39667;52.274;20.964;2022-07-04T03:33:50;100524.25;;;20.12;71.74
53754;BME280;39667;52.274;20.964;2022-07-04T03:36:16;100525.30;;;20.12;71.88
53754;BME280;39667;52.274;20.964;2022-07-04T03:38:44;100522.96;;;20.17;71.81
53754;BME280;39667;52.274;20.964;2022-07-04T03:41:10;100523.95;;;20.19;71.61
53754;BME280;39667;52.274;20.964;2022-07-04T03:43:37;100526.41;;;20.19;71.50
53754;BME280;39667;52.274;20.964;2022-07-04T03:46:03;100523.85;;;20.20;71.41
53754;BME280;39667;52.274;20.964;2022-07-04T03:48:30;100527.11;;;20.23;71.34
53754;BME280;39667;52.274;20.964;2022-07-04T03:50:57;100524.55;;;20.25;71.27
53754;BME280;39667;52.274;20.964;2022-07-04T03:53:23;100528.33;;;20.28;71.24
53754;BME280;39667;52.274;20.964;2022-07-04T03:55:50;100523.89;;;20.27;71.14
53754;BME280;39667;52.274;20.964;2022-07-04T03:58:16;100523.08;;;20.26;71.02
53754;BME280;39667;52.274;20.964;2022-07-04T04:00:43;100526.53;;;20.24;70.96
53754;BME280;39667;52.274;20.964;2022-07-04T04:03:10;100523.41;;;20.26;70.97
53754;BME280;39667;52.274;20.964;2022-07-04T04:05:56;100523.17;;;20.31;70.95
53754;BME280;39667;52.274;20.964;2022-07-04T04:08:22;100517.44;;;20.31;70.83
53754;BME280;39667;52.274;20.964;2022-07-04T04:10:49;100518.31;;;20.36;70.87
53754;BME280;39667;52.274;20.964;2022-07-04T04:13:16;100512.44;;;20.35;70.85
53754;BME280;39667;52.274;20.964;2022-07-04T04:15:42;100516.70;;;20.35;70.72
53754;BME280;39667;52.274;20.964;2022-07-04T04:18:08;100519.40;;;20.39;70.70
53754;BME280;39667;52.274;20.964;2022-07-04T04:20:34;100512.39;;;20.40;70.65
53754;BME280;39667;52.274;20.964;2022-07-04T04:23:00;100512.24;;;20.43;70.65
53754;BME280;39667;52.274;20.964;2022-07-04T04:25:27;100508.45;;;20.47;70.65
53754;BME280;39667;52.274;20.964;2022-07-04T04:27:53;100508.41;;;20.48;70.62
53754;BME280;39667;52.274;20.964;2022-07-04T04:30:19;100504.16;;;20.51;70.58
53754;BME280;39667;52.274;20.964;2022-07-04T04:32:45;100499.64;;;20.52;70.48
53754;BME280;39667;52.274;20.964;2022-07-04T04:35:12;100501.86;;;20.58;70.51
53754;BME280;39667;52.274;20.964;2022-07-04T04:37:38;100501.44;;;20.59;70.30
53754;BME280;39667;52.274;20.964;2022-07-04T04:40:05;100500.27;;;20.61;70.22
53754;BME280;39667;52.274;20.964;2022-07-04T04:42:31;100501.06;;;20.63;70.24
53754;BME280;39667;52.274;20.964;2022-07-04T04:44:57;100501.69;;;20.65;70.19
53754;BME280;39667;52.274;20.964;2022-07-04T04:47:24;100502.02;;;20.62;70.11
53754;BME280;39667;52.274;20.964;2022-07-04T04:49:50;100499.80;;;20.63;70.12
53754;BME280;39667;52.274;20.964;2022-07-04T04:52:16;100497.05;;;20.61;69.99
53754;BME280;39667;52.274;20.964;2022-07-04T04:54:43;100499.52;;;20.55;70.14
53754;BME280;39667;52.274;20.964;2022-07-04T04:57:10;100500.81;;;20.53;70.43
53754;BME280;39667;52.274;20.964;2022-07-04T04:59:37;100497.73;;;20.54;70.33
53754;BME280;39667;52.274;20.964;2022-07-04T05:02:03;100490.90;;;20.55;70.25
53754;BME280;39667;52.274;20.964;2022-07-04T05:04:29;100492.91;;;20.54;70.41
53754;BME280;39667;52.274;20.964;2022-07-04T05:06:56;100495.60;;;20.58;70.54
53754;BME280;39667;52.274;20.964;2022-07-04T05:09:22;100497.33;;;20.63;70.48
53754;BME280;39667;52.274;20.964;2022-07-04T05:11:48;100494.45;;;20.70;70.49
53754;BME280;39667;52.274;20.964;2022-07-04T05:14:16;100498.67;;;20.79;70.39
53754;BME280;39667;52.274;20.964;2022-07-04T05:16:42;100497.39;;;20.83;70.15
53754;BME280;39667;52.274;20.964;2022-07-04T05:19:09;100505.21;;;20.92;70.03
53754;BME280;39667;52.274;20.964;2022-07-04T05:21:36;100505.63;;;20.90;69.69
53754;BME280;39667;52.274;20.964;2022-07-04T05:24:02;100502.02;;;20.87;69.61
53754;BME280;39667;52.274;20.964;2022-07-04T05:26:28;100505.00;;;20.89;69.74
53754;BME280;39667;52.274;20.964;2022-07-04T05:28:55;100503.64;;;20.91;69.46
53754;BME280;39667;52.274;20.964;2022-07-04T05:31:23;100503.43;;;20.91;69.28
53754;BME280;39667;52.274;20.964;2022-07-04T05:33:51;100505.58;;;20.91;69.28
53754;BME280;39667;52.274;20.964;2022-07-04T05:36:18;100508.44;;;20.91;69.28
53754;BME280;39667;52.274;20.964;2022-07-04T05:38:45;100511.91;;;20.94;69.27
53754;BME280;39667;52.274;20.964;2022-07-04T05:41:11;100514.55;;;20.99;69.25
53754;BME280;39667;52.274;20.964;2022-07-04T05:43:38;100512.20;;;21.02;69.17
53754;BME280;39667;52.274;20.964;2022-07-04T05:46:04;100510.55;;;21.07;69.05
53754;BME280;39667;52.274;20.964;2022-07-04T05:48:30;100513.30;;;21.09;68.83
53754;BME280;39667;52.274;20.964;2022-07-04T05:50:57;100510.10;;;21.13;68.84
53754;BME280;39667;52.274;20.964;2022-07-04T05:53:23;100510.91;;;21.18;68.74
53754;BME280;39667;52.274;20.964;2022-07-04T05:55:49;100507.98;;;21.22;68.31
53754;BME280;39667;52.274;20.964;2022-07-04T05:58:16;100509.86;;;21.24;68.38
53754;BME280;39667;52.274;20.964;2022-07-04T06:00:42;100515.40;;;21.31;68.01
53754;BME280;39667;52.274;20.964;2022-07-04T06:03:08;100516.34;;;21.40;67.81
53754;BME280;39667;52.274;20.964;2022-07-04T06:05:35;100515.48;;;21.47;67.38
53754;BME280;39667;52.274;20.964;2022-07-04T06:08:01;100519.44;;;21.53;67.01
53754;BME280;39667;52.274;20.964;2022-07-04T06:10:28;100507.00;;;21.58;66.33
53754;BME280;39667;52.274;20.964;2022-07-04T06:12:55;100510.04;;;21.65;66.10
53754;BME280;39667;52.274;20.964;2022-07-04T06:15:21;100512.75;;;21.71;66.03
53754;BME280;39667;52.274;20.964;2022-07-04T06:17:48;100513.70;;;21.77;65.87
53754;BME280;39667;52.274;20.964;2022-07-04T06:20:14;100515.23;;;21.80;65.31
53754;BME280;39667;52.274;20.964;2022-07-04T06:22:43;100509.85;;;21.75;65.09
53754;BME280;39667;52.274;20.964;2022-07-04T06:25:14;100501.38;;;21.76;65.05
53754;BME280;39667;52.274;20.964;2022-07-04T06:27:42;100497.11;;;21.80;64.73
53754;BME280;39667;52.274;20.964;2022-07-04T06:30:10;100495.64;;;21.84;64.77
53754;BME280;39667;52.274;20.964;2022-07-04T06:32:57;100489.71;;;21.87;64.63
53754;BME280;39667;52.274;20.964;2022-07-04T06:35:34;100487.75;;;21.90;64.71
53754;BME280;39667;52.274;20.964;2022-07-04T06:38:18;100482.70;;;21.91;64.51
53754;BME280;39667;52.274;20.964;2022-07-04T06:40:46;100484.49;;;21.94;64.16
53754;BME280;39667;52.274;20.964;2022-07-04T06:43:12;100482.79;;;21.99;64.20
53754;BME280;39667;52.274;20.964;2022-07-04T06:45:39;100474.29;;;22.04;63.63
53754;BME280;39667;52.274;20.964;2022-07-04T06:48:06;100462.63;;;22.04;63.35
53754;BME280;39667;52.274;20.964;2022-07-04T06:50:33;100464.07;;;22.07;63.56
53754;BME280;39667;52.274;20.964;2022-07-04T06:53:06;100464.88;;;22.12;63.39
53754;BME280;39667;52.274;20.964;2022-07-04T06:55:33;100466.37;;;22.14;63.41
53754;BME280;39667;52.274;20.964;2022-07-04T06:57:59;100464.43;;;22.20;63.10
53754;BME280;39667;52.274;20.964;2022-07-04T07:00:27;100464.27;;;22.26;63.13
53754;BME280;39667;52.274;20.964;2022-07-04T07:03:00;100468.62;;;22.31;62.84
53754;BME280;39667;52.274;20.964;2022-07-04T07:05:27;100473.16;;;22.37;62.75
53754;BME280;39667;52.274;20.964;2022-07-04T07:08:14;100468.45;;;22.44;62.28
53754;BME280;39667;52.274;20.964;2022-07-04T07:10:41;100466.20;;;22.52;62.38
53754;BME280;39667;52.274;20.964;2022-07-04T07:13:07;100467.87;;;22.60;62.17
53754;BME280;39667;52.274;20.964;2022-07-04T07:15:34;100464.17;;;22.72;62.14
53754;BME280;39667;52.274;20.964;2022-07-04T07:18:02;100460.77;;;22.81;61.39
53754;BME280;39667;52.274;20.964;2022-07-04T07:20:29;100462.93;;;22.87;60.98
53754;BME280;39667;52.274;20.964;2022-07-04T07:22:55;100462.96;;;22.95;60.68
53754;BME280;39667;52.274;20.964;2022-07-04T07:25:21;100463.14;;;23.01;60.06
53754;BME280;39667;52.274;20.964;2022-07-04T07:27:47;100467.74;;;23.09;60.03
53754;BME280;39667;52.274;20.964;2022-07-04T07:30:13;100467.45;;;23.13;59.46
53754;BME280;39667;52.274;20.964;2022-07-04T07:32:40;100464.18;;;23.11;58.97
53754;BME280;39667;52.274;20.964;2022-07-04T07:35:06;100456.52;;;23.07;58.85
53754;BME280;39667;52.274;20.964;2022-07-04T07:37:32;100466.11;;;23.09;58.86
53754;BME280;39667;52.274;20.964;2022-07-04T07:40:01;100466.27;;;23.06;58.76
53754;BME280;39667;52.274;20.964;2022-07-04T07:42:28;100465.74;;;23.03;58.74
53754;BME280;39667;52.274;20.964;2022-07-04T07:44:54;100466.01;;;23.05;58.96
53754;BME280;39667;52.274;20.964;2022-07-04T07:47:22;100464.39;;;23.11;58.73
53754;BME280;39667;52.274;20.964;2022-07-04T07:49:48;100463.57;;;23.12;58.81
53754;BME280;39667;52.274;20.964;2022-07-04T07:52:14;100464.71;;;23.17;58.45
53754;BME280;39667;52.274;20.964;2022-07-04T07:54:41;100468.55;;;23.19;58.19
53754;BME280;39667;52.274;20.964;2022-07-04T07:57:26;100467.39;;;23.26;58.18
53754;BME280;39667;52.274;20.964;2022-07-04T07:59:52;100465.52;;;23.40;57.99
53754;BME280;39667;52.274;20.964;2022-07-04T08:02:18;100465.36;;;23.54;57.82
53754;BME280;39667;52.274;20.964;2022-07-04T08:04:45;100469.49;;;23.71;57.92
53754;BME280;39667;52.274;20.964;2022-07-04T08:07:12;100464.69;;;23.80;57.02
53754;BME280;39667;52.274;20.964;2022-07-04T08:09:48;100466.83;;;23.94;56.98
53754;BME280;39667;52.274;20.964;2022-07-04T08:12:14;100461.84;;;24.10;56.97
53754;BME280;39667;52.274;20.964;2022-07-04T08:14:41;100461.33;;;24.24;56.43
53754;BME280;39667;52.274;20.964;2022-07-04T08:17:07;100464.35;;;24.39;56.34
53754;BME280;39667;52.274;20.964;2022-07-04T08:19:33;100464.50;;;24.53;55.68
53754;BME280;39667;52.274;20.964;2022-07-04T08:21:59;100458.55;;;24.61;54.93
53754;BME280;39667;52.274;20.964;2022-07-04T08:24:43;100463.07;;;24.69;54.62
53754;BME280;39667;52.274;20.964;2022-07-04T08:27:10;100461.30;;;24.85;54.70
53754;BME280;39667;52.274;20.964;2022-07-04T08:29:37;100462.67;;;25.02;54.21
53754;BME280;39667;52.274;20.964;2022-07-04T08:32:03;100461.42;;;25.15;53.16
53754;BME280;39667;52.274;20.964;2022-07-04T08:34:29;100457.07;;;25.15;51.96
53754;BME280;39667;52.274;20.964;2022-07-04T08:36:55;100452.47;;;25.14;51.42
53754;BME280;39667;52.274;20.964;2022-07-04T08:39:22;100456.05;;;25.12;50.75
53754;BME280;39667;52.274;20.964;2022-07-04T08:41:49;100460.63;;;25.06;50.12
53754;BME280;39667;52.274;20.964;2022-07-04T08:44:19;100460.41;;;25.03;50.04
53754;BME280;39667;52.274;20.964;2022-07-04T08:46:49;100460.08;;;25.06;50.16
53754;BME280;39667;52.274;20.964;2022-07-04T08:49:21;100455.05;;;25.16;49.97
53754;BME280;39667;52.274;20.964;2022-07-04T08:51:54;100452.84;;;25.27;49.03
53754;BME280;39667;52.274;20.964;2022-07-04T08:54:23;100453.58;;;25.24;48.89
53754;BME280;39667;52.274;20.964;2022-07-04T08:57:10;100462.66;;;25.26;48.97
53754;BME280;39667;52.274;20.964;2022-07-04T08:59:57;100460.06;;;25.32;47.70
53754;BME280;39667;52.274;20.964;2022-07-04T09:02:28;100452.98;;;25.35;48.14
53754;BME280;39667;52.274;20.964;2022-07-04T09:04:55;100455.31;;;25.49;48.01
53754;BME280;39667;52.274;20.964;2022-07-04T09:07:22;100459.14;;;25.42;47.24
53754;BME280;39667;52.274;20.964;2022-07-04T09:09:49;100451.27;;;25.34;46.88
53754;BME280;39667;52.274;20.964;2022-07-04T09:12:18;100455.23;;;25.27;46.56
53754;BME280;39667;52.274;20.964;2022-07-04T09:14:45;100454.08;;;25.28;46.48
53754;BME280;39667;52.274;20.964;2022-07-04T09:17:11;100456.61;;;25.45;46.60
53754;BME280;39667;52.274;20.964;2022-07-04T09:19:37;100457.77;;;25.68;46.04
53754;BME280;39667;52.274;20.964;2022-07-04T09:22:05;100453.59;;;25.88;46.29
53754;BME280;39667;52.274;20.964;2022-07-04T09:24:52;100461.50;;;26.19;46.14
53754;BME280;39667;52.274;20.964;2022-07-04T09:27:33;100459.76;;;26.48;45.27
53754;BME280;39667;52.274;20.964;2022-07-04T09:30:01;100459.86;;;26.80;45.18
53754;BME280;39667;52.274;20.964;2022-07-04T09:32:41;100469.65;;;27.06;44.63
53754;BME280;39667;52.274;20.964;2022-07-04T09:35:16;100470.52;;;27.23;43.44
53754;BME280;39667;52.274;20.964;2022-07-04T09:37:45;100469.52;;;27.26;42.68
53754;BME280;39667;52.274;20.964;2022-07-04T09:40:27;100469.64;;;27.01;43.09
53754;BME280;39667;52.274;20.964;2022-07-04T09:42:57;100469.64;;;26.82;43.79
53754;BME280;39667;52.274;20.964;2022-07-04T09:45:25;100476.59;;;26.76;44.38
53754;BME280;39667;52.274;20.964;2022-07-04T09:47:56;100475.98;;;26.60;44.79
53754;BME280;39667;52.274;20.964;2022-07-04T09:50:24;100477.33;;;26.56;45.35
53754;BME280;39667;52.274;20.964;2022-07-04T09:55:30;100474.27;;;26.68;45.75
53754;BME280;39667;52.274;20.964;2022-07-04T09:58:03;100466.95;;;26.82;45.72
53754;BME280;39667;52.274;20.964;2022-07-04T10:00:32;100468.27;;;27.00;45.86
53754;BME280;39667;52.274;20.964;2022-07-04T10:03:22;100473.64;;;27.17;45.07
53754;BME280;39667;52.274;20.964;2022-07-04T10:06:13;100475.79;;;27.36;45.22
53754;BME280;39667;52.274;20.964;2022-07-04T10:08:43;100469.41;;;27.60;45.10
53754;BME280;39667;52.274;20.964;2022-07-04T10:11:10;100465.00;;;27.75;44.03
53754;BME280;39667;52.274;20.964;2022-07-04T10:13:45;100458.41;;;27.85;43.94
53754;BME280;39667;52.274;20.964;2022-07-04T10:16:11;100456.73;;;27.92;43.82
53754;BME280;39667;52.274;20.964;2022-07-04T10:18:40;100456.77;;;28.08;43.69
53754;BME280;39667;52.274;20.964;2022-07-04T10:21:07;100453.74;;;28.16;43.70
53754;BME280;39667;52.274;20.964;2022-07-04T10:23:34;100451.29;;;28.24;43.69
53754;BME280;39667;52.274;20.964;2022-07-04T10:26:02;100446.48;;;28.21;43.00
53754;BME280;39667;52.274;20.964;2022-07-04T10:28:29;100454.84;;;28.23;43.15
53754;BME280;39667;52.274;20.964;2022-07-04T10:30:57;100454.66;;;28.23;43.83
53754;BME280;39667;52.274;20.964;2022-07-04T10:33:26;100456.55;;;28.26;43.88
53754;BME280;39667;52.274;20.964;2022-07-04T10:36:14;100455.41;;;28.38;43.03
53754;BME280;39667;52.274;20.964;2022-07-04T10:38:52;100455.45;;;28.57;42.90
53754;BME280;39667;52.274;20.964;2022-07-04T10:41:20;100461.08;;;28.66;42.62
53754;BME280;39667;52.274;20.964;2022-07-04T10:46:24;100454.28;;;28.84;41.32
53754;BME280;39667;52.274;20.964;2022-07-04T10:48:53;100453.27;;;28.77;40.73
53754;BME280;39667;52.274;20.964;2022-07-04T10:54:45;100452.96;;;28.72;41.20
53754;BME280;39667;52.274;20.964;2022-07-04T10:57:20;100448.17;;;28.79;41.19
53754;BME280;39667;52.274;20.964;2022-07-04T11:02:25;100445.45;;;28.62;40.14
53754;BME280;39667;52.274;20.964;2022-07-04T11:05:10;100446.65;;;28.65;40.43
53754;BME280;39667;52.274;20.964;2022-07-04T11:18:01;100446.52;;;28.49;40.55
53754;BME280;39667;52.274;20.964;2022-07-04T11:20:30;100447.80;;;28.29;40.86
53754;BME280;39667;52.274;20.964;2022-07-04T11:23:07;100439.44;;;28.18;40.79
53754;BME280;39667;52.274;20.964;2022-07-04T11:25:34;100435.56;;;28.12;40.74
53754;BME280;39667;52.274;20.964;2022-07-04T11:28:30;100432.67;;;28.12;41.43
53754;BME280;39667;52.274;20.964;2022-07-04T11:31:13;100428.77;;;28.13;41.77
53754;BME280;39667;52.274;20.964;2022-07-04T11:33:42;100432.05;;;28.22;41.87
53754;BME280;39667;52.274;20.964;2022-07-04T11:36:17;100429.05;;;28.28;42.00
53754;BME280;39667;52.274;20.964;2022-07-04T11:38:51;100432.38;;;28.38;41.82
53754;BME280;39667;52.274;20.964;2022-07-04T11:41:27;100429.24;;;28.43;40.95
53754;BME280;39667;52.274;20.964;2022-07-04T11:44:15;100423.25;;;28.37;40.85
53754;BME280;39667;52.274;20.964;2022-07-04T11:49:33;100414.23;;;28.12;40.84
53754;BME280;39667;52.274;20.964;2022-07-04T11:52:00;100414.50;;;28.09;41.03
53754;BME280;39667;52.274;20.964;2022-07-04T11:54:27;100410.52;;;28.04;40.51
53754;BME280;39667;52.274;20.964;2022-07-04T11:57:14;100404.23;;;27.92;41.09
53754;BME280;39667;52.274;20.964;2022-07-04T11:59:42;100404.36;;;27.89;41.30
53754;BME280;39667;52.274;20.964;2022-07-04T12:02:11;100403.40;;;27.85;41.19
53754;BME280;39667;52.274;20.964;2022-07-04T12:04:39;100397.54;;;27.79;41.18
53754;BME280;39667;52.274;20.964;2022-07-04T12:07:13;100392.66;;;27.86;41.72
53754;BME280;39667;52.274;20.964;2022-07-04T12:09:40;100398.20;;;28.00;41.37
53754;BME280;39667;52.274;20.964;2022-07-04T12:12:07;100396.70;;;28.16;41.77
53754;BME280;39667;52.274;20.964;2022-07-04T12:14:33;100398.27;;;28.39;41.75
53754;BME280;39667;52.274;20.964;2022-07-04T12:19:58;100393.59;;;28.73;40.90
53754;BME280;39667;52.274;20.964;2022-07-04T12:24:51;100393.52;;;28.80;41.05
53754;BME280;39667;52.274;20.964;2022-07-04T12:27:18;100393.61;;;28.92;40.99
53754;BME280;39667;52.274;20.964;2022-07-04T12:29:50;100399.61;;;28.94;41.04
53754;BME280;39667;52.274;20.964;2022-07-04T12:32:17;100401.23;;;28.92;40.22
53754;BME280;39667;52.274;20.964;2022-07-04T12:34:44;100398.73;;;28.85;40.34
53754;BME280;39667;52.274;20.964;2022-07-04T12:37:13;100396.27;;;28.90;40.82
53754;BME280;39667;52.274;20.964;2022-07-04T12:39:41;100401.66;;;28.95;41.03
53754;BME280;39667;52.274;20.964;2022-07-04T12:42:15;100401.40;;;29.01;40.91
53754;BME280;39667;52.274;20.964;2022-07-04T12:44:44;100400.36;;;29.06;40.57
53754;BME280;39667;52.274;20.964;2022-07-04T12:47:12;100399.27;;;29.04;39.92
53754;BME280;39667;52.274;20.964;2022-07-04T12:49:45;100394.88;;;28.81;39.36
53754;BME280;39667;52.274;20.964;2022-07-04T12:52:16;100394.74;;;28.70;39.80
53754;BME280;39667;52.274;20.964;2022-07-04T12:54:43;100393.92;;;28.63;39.78
53754;BME280;39667;52.274;20.964;2022-07-04T12:57:15;100403.10;;;28.51;40.10
53754;BME280;39667;52.274;20.964;2022-07-04T12:59:44;100403.66;;;28.35;39.92
53754;BME280;39667;52.274;20.964;2022-07-04T13:02:10;100393.79;;;28.23;40.34
53754;BME280;39667;52.274;20.964;2022-07-04T13:04:38;100394.42;;;28.35;40.19
53754;BME280;39667;52.274;20.964;2022-07-04T13:07:15;100390.30;;;28.50;40.07
53754;BME280;39667;52.274;20.964;2022-07-04T13:09:43;100389.77;;;28.71;39.93
53754;BME280;39667;52.274;20.964;2022-07-04T13:12:11;100386.95;;;29.00;39.93
53754;BME280;39667;52.274;20.964;2022-07-04T13:14:57;100388.02;;;29.31;39.20
53754;BME280;39667;52.274;20.964;2022-07-04T13:17:25;100384.48;;;29.39;38.44
53754;BME280;39667;52.274;20.964;2022-07-04T13:19:52;100377.52;;;29.44;38.54
53754;BME280;39667;52.274;20.964;2022-07-04T13:22:22;100369.73;;;29.62;38.71